sensor_id;sensor_type;location;lat;lon;timestamp;pressure;altitude;pressure_sealevel;temperature;humidity
41830;BME280;38614;43.472;23.936;2023-02-02T00:00:34;100275.47;;;2.40;100.00
41830;BME280;38614;43.472;23.936;2023-02-02T00:03:22;100300.44;;;2.47;100.00
41830;BME280;38614;43.472;23.936;2023-02-02T00:06:10;100296.09;;;2.46;100.00
41830;BME280;38614;43.472;23.936;2023-02-02T00:09:02;100300.84;;;2.54;100.00
41830;BME280;38614;43.472;23.936;2023-02-02T00:11:50;100299.13;;;2.58;100.00
41830;BME280;38614;43.472;23.936;2023-02-02T00:14:38;100308.31;;;2.49;100.00
41830;BME280;38614;43.472;23.936;2023-02-02T00:17:28;100302.66;;;2.45;100.00
41830;BME280;38614;43.472;23.936;2023-02-02T00:20:16;100305.38;;;2.45;100.00
41830;BME280;38614;43.472;23.936;2023-02-02T00:23:04;100301.16;;;2.53;100.00
41830;BME280;38614;43.472;23.936;2023-02-02T00:25:54;100281.94;;;2.44;100.00
41830;BME280;38614;43.472;23.936;2023-02-02T00:28:42;100309.03;;;2.54;100.00
41830;BME280;38614;43.472;23.936;2023-02-02T00:31:30;100307.31;;;2.58;100.00
41830;BME280;38614;43.472;23.936;2023-02-02T00:34:17;100310.06;;;2.72;100.00
41830;BME280;38614;43.472;23.936;2023-02-02T00:37:06;100310.66;;;2.69;100.00
41830;BME280;38614;43.472;23.936;2023-02-02T00:39:53;100318.03;;;2.69;100.00
41830;BME280;38614;43.472;23.936;2023-02-02T00:42:41;100317.53;;;2.67;100.00
41830;BME280;38614;43.472;23.936;2023-02-02T00:45:29;100312.38;;;2.65;100.00
41830;BME280;38614;43.472;23.936;2023-02-02T00:48:17;100320.13;;;2.58;100.00
41830;BME280;38614;43.472;23.936;2023-02-02T00:51:05;100316.38;;;2.40;100.00
41830;BME280;38614;43.472;23.936;2023-02-02T00:53:55;100312.72;;;2.31;100.00
41830;BME280;38614;43.472;23.936;2023-02-02T00:56:42;100309.16;;;2.17;100.00
41830;BME280;38614;43.472;23.936;2023-02-02T00:59:31;100309.41;;;2.34;100.00
41830;BME280;38614;43.472;23.936;2023-02-02T01:02:19;100306.19;;;2.46;100.00
41830;BME280;38614;43.472;23.936;2023-02-02T01:05:07;100285.16;;;2.33;100.00
41830;BME280;38614;43.472;23.936;2023-02-02T01:07:54;100302.34;;;2.33;100.00
41830;BME280;38614;43.472;23.936;2023-02-02T01:10:42;100235.56;;;1.84;100.00
41830;BME280;38614;43.472;23.936;2023-02-02T01:13:30;100299.88;;;2.32;100.00
41830;BME280;38614;43.472;23.936;2023-02-02T01:16:18;100300.81;;;2.27;100.00
41830;BME280;38614;43.472;23.936;2023-02-02T01:19:08;100275.53;;;2.08;100.00
41830;BME280;38614;43.472;23.936;2023-02-02T01:21:58;100296.47;;;2.26;100.00
41830;BME280;38614;43.472;23.936;2023-02-02T01:24:49;100256.00;;;2.00;100.00
41830;BME280;38614;43.472;23.936;2023-02-02T01:27:37;100268.97;;;2.22;100.00
41830;BME280;38614;43.472;23.936;2023-02-02T01:30:25;100269.81;;;2.37;100.00
41830;BME280;38614;43.472;23.936;2023-02-02T01:33:15;100217.16;;;2.09;100.00
41830;BME280;38614;43.472;23.936;2023-02-02T01:36:05;100267.19;;;2.45;100.00
41830;BME280;38614;43.472;23.936;2023-02-02T01:38:53;100268.81;;;2.46;100.00
41830;BME280;38614;43.472;23.936;2023-02-02T01:41:43;100263.75;;;2.40;100.00
41830;BME280;38614;43.472;23.936;2023-02-02T01:47:43;100259.41;;;2.25;100.00
41830;BME280;38614;43.472;23.936;2023-02-02T01:50:33;100258.97;;;2.32;100.00
41830;BME280;38614;43.472;23.936;2023-02-02T01:53:22;100253.25;;;2.33;100.00
41830;BME280;38614;43.472;23.936;2023-02-02T01:56:14;100244.47;;;2.36;100.00
41830;BME280;38614;43.472;23.936;2023-02-02T01:59:04;100241.22;;;2.48;100.00
41830;BME280;38614;43.472;23.936;2023-02-02T02:01:54;100229.91;;;2.27;100.00
41830;BME280;38614;43.472;23.936;2023-02-02T02:04:42;100235.16;;;2.37;100.00
41830;BME280;38614;43.472;23.936;2023-02-02T02:07:30;100198.81;;;2.14;100.00
41830;BME280;38614;43.472;23.936;2023-02-02T02:10:18;100241.94;;;2.26;100.00
41830;BME280;38614;43.472;23.936;2023-02-02T02:13:06;100228.19;;;2.17;100.00
41830;BME280;38614;43.472;23.936;2023-02-02T02:16:03;100237.91;;;2.37;100.00
41830;BME280;38614;43.472;23.936;2023-02-02T02:26:29;100236.09;;;2.46;100.00
41830;BME280;38614;43.472;23.936;2023-02-02T02:36:23;100243.75;;;2.44;100.00
41830;BME280;38614;43.472;23.936;2023-02-02T02:39:26;100249.09;;;2.49;100.00
41830;BME280;38614;43.472;23.936;2023-02-02T02:42:21;100240.22;;;2.57;100.00
41830;BME280;38614;43.472;23.936;2023-02-02T02:45:12;100242.97;;;2.71;100.00
41830;BME280;38614;43.472;23.936;2023-02-02T02:48:01;100249.41;;;2.89;100.00
41830;BME280;38614;43.472;23.936;2023-02-02T02:50:50;100244.22;;;3.01;100.00
41830;BME280;38614;43.472;23.936;2023-02-02T02:53:38;100248.75;;;3.06;100.00
41830;BME280;38614;43.472;23.936;2023-02-02T02:56:36;100230.38;;;2.98;100.00
41830;BME280;38614;43.472;23.936;2023-02-02T03:02:56;100226.09;;;3.05;100.00
41830;BME280;38614;43.472;23.936;2023-02-02T03:05:59;100253.31;;;3.10;100.00
41830;BME280;38614;43.472;23.936;2023-02-02T03:11:40;100262.41;;;3.20;100.00
41830;BME280;38614;43.472;23.936;2023-02-02T03:14:33;100267.63;;;3.16;100.00
41830;BME280;38614;43.472;23.936;2023-02-02T03:17:21;100264.47;;;3.00;100.00
41830;BME280;38614;43.472;23.936;2023-02-02T03:20:12;100269.41;;;2.84;100.00
41830;BME280;38614;43.472;23.936;2023-02-02T03:23:00;100269.94;;;2.73;100.00
41830;BME280;38614;43.472;23.936;2023-02-02T03:25:48;100273.25;;;2.70;100.00
41830;BME280;38614;43.472;23.936;2023-02-02T03:28:36;100260.19;;;3.08;100.00
41830;BME280;38614;43.472;23.936;2023-02-02T03:31:26;100279.25;;;3.35;100.00
41830;BME280;38614;43.472;23.936;2023-02-02T03:34:14;100267.69;;;3.75;100.00
41830;BME280;38614;43.472;23.936;2023-02-02T03:37:02;100265.94;;;3.79;100.00
41830;BME280;38614;43.472;23.936;2023-02-02T03:39:50;100245.13;;;3.69;100.00
41830;BME280;38614;43.472;23.936;2023-02-02T03:42:39;100236.25;;;3.63;100.00
41830;BME280;38614;43.472;23.936;2023-02-02T03:45:27;100259.78;;;3.73;100.00
41830;BME280;38614;43.472;23.936;2023-02-02T03:48:16;100254.75;;;3.66;100.00
41830;BME280;38614;43.472;23.936;2023-02-02T03:51:08;100257.34;;;3.71;100.00
41830;BME280;38614;43.472;23.936;2023-02-02T03:53:59;100255.41;;;3.72;100.00
41830;BME280;38614;43.472;23.936;2023-02-02T03:56:47;100257.56;;;3.75;100.00
41830;BME280;38614;43.472;23.936;2023-02-02T03:59:35;100229.72;;;3.51;100.00
41830;BME280;38614;43.472;23.936;2023-02-02T04:02:25;100245.84;;;3.61;100.00
41830;BME280;38614;43.472;23.936;2023-02-02T04:05:15;100237.22;;;3.67;100.00
41830;BME280;38614;43.472;23.936;2023-02-02T04:08:03;100234.00;;;3.65;100.00
41830;BME280;38614;43.472;23.936;2023-02-02T04:10:51;100243.44;;;3.59;100.00
41830;BME280;38614;43.472;23.936;2023-02-02T04:13:39;100245.69;;;3.57;100.00
41830;BME280;38614;43.472;23.936;2023-02-02T04:16:29;100231.31;;;3.29;100.00
41830;BME280;38614;43.472;23.936;2023-02-02T04:19:21;100253.66;;;3.31;100.00
41830;BME280;38614;43.472;23.936;2023-02-02T04:22:09;100252.78;;;3.22;100.00
41830;BME280;38614;43.472;23.936;2023-02-02T04:24:57;100237.25;;;2.95;100.00
41830;BME280;38614;43.472;23.936;2023-02-02T04:27:52;100259.50;;;3.02;100.00
41830;BME280;38614;43.472;23.936;2023-02-02T04:30:40;100233.22;;;2.79;100.00
41830;BME280;38614;43.472;23.936;2023-02-02T04:33:33;100248.38;;;2.85;100.00
41830;BME280;38614;43.472;23.936;2023-02-02T04:36:21;100256.88;;;2.70;100.00
41830;BME280;38614;43.472;23.936;2023-02-02T04:39:10;100243.94;;;2.20;100.00
41830;BME280;38614;43.472;23.936;2023-02-02T04:41:59;100270.44;;;2.34;100.00
41830;BME280;38614;43.472;23.936;2023-02-02T04:44:47;100211.03;;;1.70;100.00
41830;BME280;38614;43.472;23.936;2023-02-02T04:47:36;100253.78;;;1.89;100.00
41830;BME280;38614;43.472;23.936;2023-02-02T04:50:24;100262.38;;;1.96;100.00
41830;BME280;38614;43.472;23.936;2023-02-02T04:53:12;100260.03;;;1.89;100.00
41830;BME280;38614;43.472;23.936;2023-02-02T04:56:13;100269.00;;;1.90;100.00
41830;BME280;38614;43.472;23.936;2023-02-02T04:59:01;100279.97;;;1.85;100.00
41830;BME280;38614;43.472;23.936;2023-02-02T05:01:49;100276.50;;;1.98;100.00
41830;BME280;38614;43.472;23.936;2023-02-02T05:04:37;100290.56;;;2.05;100.00
41830;BME280;38614;43.472;23.936;2023-02-02T05:07:26;100297.41;;;2.03;100.00
41830;BME280;38614;43.472;23.936;2023-02-02T05:10:16;100296.41;;;2.12;100.00
41830;BME280;38614;43.472;23.936;2023-02-02T05:13:05;100292.06;;;2.11;100.00
41830;BME280;38614;43.472;23.936;2023-02-02T05:15:55;100314.69;;;2.12;100.00
41830;BME280;38614;43.472;23.936;2023-02-02T05:18:51;100291.75;;;1.99;100.00
41830;BME280;38614;43.472;23.936;2023-02-02T05:21:42;100305.75;;;1.92;100.00
41830;BME280;38614;43.472;23.936;2023-02-02T05:24:40;100295.81;;;1.83;100.00
41830;BME280;38614;43.472;23.936;2023-02-02T05:27:31;100295.34;;;1.62;100.00
41830;BME280;38614;43.472;23.936;2023-02-02T05:30:19;100295.34;;;1.62;100.00
41830;BME280;38614;43.472;23.936;2023-02-02T05:33:09;100305.50;;;1.56;100.00
41830;BME280;38614;43.472;23.936;2023-02-02T05:35:59;100298.44;;;1.55;100.00
41830;BME280;38614;43.472;23.936;2023-02-02T05:38:47;100296.59;;;1.51;100.00
41830;BME280;38614;43.472;23.936;2023-02-02T05:41:35;100302.56;;;1.53;100.00
41830;BME280;38614;43.472;23.936;2023-02-02T05:44:26;100313.66;;;1.56;100.00
41830;BME280;38614;43.472;23.936;2023-02-02T05:47:13;100306.25;;;1.43;100.00
41830;BME280;38614;43.472;23.936;2023-02-02T05:50:02;100310.63;;;1.39;100.00
41830;BME280;38614;43.472;23.936;2023-02-02T05:52:50;100235.03;;;0.74;100.00
41830;BME280;38614;43.472;23.936;2023-02-02T05:55:38;100317.03;;;1.29;100.00
41830;BME280;38614;43.472;23.936;2023-02-02T05:58:27;100321.91;;;1.32;100.00
41830;BME280;38614;43.472;23.936;2023-02-02T06:01:17;100315.81;;;1.40;100.00
41830;BME280;38614;43.472;23.936;2023-02-02T06:04:07;100265.16;;;1.21;100.00
41830;BME280;38614;43.472;23.936;2023-02-02T06:06:55;100316.63;;;1.60;100.00
41830;BME280;38614;43.472;23.936;2023-02-02T06:09:42;100275.84;;;1.36;100.00
41830;BME280;38614;43.472;23.936;2023-02-02T06:12:34;100326.75;;;1.73;100.00
41830;BME280;38614;43.472;23.936;2023-02-02T06:15:24;100328.06;;;1.76;100.00
41830;BME280;38614;43.472;23.936;2023-02-02T06:18:14;100317.31;;;1.84;100.00
41830;BME280;38614;43.472;23.936;2023-02-02T06:21:05;100313.78;;;1.84;100.00
41830;BME280;38614;43.472;23.936;2023-02-02T06:23:55;100319.84;;;1.81;100.00
41830;BME280;38614;43.472;23.936;2023-02-02T06:26:42;100317.34;;;1.65;100.00
41830;BME280;38614;43.472;23.936;2023-02-02T06:29:30;100321.47;;;1.63;100.00
41830;BME280;38614;43.472;23.936;2023-02-02T06:32:18;100321.47;;;1.63;100.00
41830;BME280;38614;43.472;23.936;2023-02-02T06:35:08;100301.97;;;1.37;100.00
41830;BME280;38614;43.472;23.936;2023-02-02T06:37:57;100297.56;;;1.22;100.00
41830;BME280;38614;43.472;23.936;2023-02-02T06:40:47;100311.84;;;1.33;100.00
41830;BME280;38614;43.472;23.936;2023-02-02T06:43:38;100310.94;;;1.37;100.00
41830;BME280;38614;43.472;23.936;2023-02-02T06:46:27;100315.97;;;1.49;100.00
41830;BME280;38614;43.472;23.936;2023-02-02T06:49:15;100300.78;;;1.62;100.00
41830;BME280;38614;43.472;23.936;2023-02-02T06:52:03;100301.28;;;1.64;100.00
41830;BME280;38614;43.472;23.936;2023-02-02T06:54:51;100307.03;;;1.81;100.00
41830;BME280;38614;43.472;23.936;2023-02-02T06:57:43;100285.44;;;1.85;100.00
41830;BME280;38614;43.472;23.936;2023-02-02T07:00:32;100313.72;;;2.21;100.00
41830;BME280;38614;43.472;23.936;2023-02-02T07:03:25;100313.28;;;2.61;100.00
41830;BME280;38614;43.472;23.936;2023-02-02T07:06:24;100304.59;;;2.86;100.00
41830;BME280;38614;43.472;23.936;2023-02-02T07:09:12;100291.53;;;3.10;100.00
41830;BME280;38614;43.472;23.936;2023-02-02T07:12:00;100292.97;;;3.44;100.00
41830;BME280;38614;43.472;23.936;2023-02-02T07:14:51;100255.25;;;3.46;100.00
41830;BME280;38614;43.472;23.936;2023-02-02T07:17:42;100253.31;;;3.47;100.00
41830;BME280;38614;43.472;23.936;2023-02-02T07:20:30;100291.78;;;3.95;100.00
41830;BME280;38614;43.472;23.936;2023-02-02T07:23:20;100274.69;;;3.89;100.00
41830;BME280;38614;43.472;23.936;2023-02-02T07:26:13;100264.22;;;3.83;100.00
41830;BME280;38614;43.472;23.936;2023-02-02T07:29:04;100286.81;;;4.19;100.00
41830;BME280;38614;43.472;23.936;2023-02-02T07:31:52;100251.00;;;4.38;100.00
41830;BME280;38614;43.472;23.936;2023-02-02T07:34:40;100269.50;;;4.81;100.00
41830;BME280;38614;43.472;23.936;2023-02-02T07:37:31;100274.94;;;5.12;100.00
41830;BME280;38614;43.472;23.936;2023-02-02T07:40:28;100265.13;;;5.97;100.00
41830;BME280;38614;43.472;23.936;2023-02-02T07:43:17;100273.53;;;7.15;100.00
41830;BME280;38614;43.472;23.936;2023-02-02T07:46:07;100274.09;;;7.71;100.00
41830;BME280;38614;43.472;23.936;2023-02-02T07:48:56;100268.03;;;7.15;100.00
41830;BME280;38614;43.472;23.936;2023-02-02T07:51:45;100266.84;;;7.25;100.00
41830;BME280;38614;43.472;23.936;2023-02-02T07:54:36;100270.06;;;7.69;100.00
41830;BME280;38614;43.472;23.936;2023-02-02T07:57:29;100251.03;;;7.64;100.00
41830;BME280;38614;43.472;23.936;2023-02-02T08:00:20;100245.91;;;7.54;100.00
41830;BME280;38614;43.472;23.936;2023-02-02T08:03:10;100228.69;;;7.24;100.00
41830;BME280;38614;43.472;23.936;2023-02-02T08:05:59;100238.63;;;7.58;100.00
41830;BME280;38614;43.472;23.936;2023-02-02T08:08:47;100222.47;;;7.35;100.00
41830;BME280;38614;43.472;23.936;2023-02-02T08:11:36;100236.81;;;7.41;100.00
41830;BME280;38614;43.472;23.936;2023-02-02T08:14:24;100240.31;;;7.50;100.00
41830;BME280;38614;43.472;23.936;2023-02-02T08:17:12;100245.53;;;7.43;100.00
41830;BME280;38614;43.472;23.936;2023-02-02T08:20:00;100259.63;;;7.41;100.00
41830;BME280;38614;43.472;23.936;2023-02-02T08:22:48;100253.84;;;7.34;100.00
41830;BME280;38614;43.472;23.936;2023-02-02T08:25:36;100249.47;;;7.33;100.00
41830;BME280;38614;43.472;23.936;2023-02-02T08:28:32;100250.91;;;7.39;100.00
41830;BME280;38614;43.472;23.936;2023-02-02T08:31:39;100253.44;;;7.65;100.00
41830;BME280;38614;43.472;23.936;2023-02-02T08:34:30;100261.44;;;8.24;100.00
41830;BME280;38614;43.472;23.936;2023-02-02T08:37:20;100241.94;;;8.87;100.00
41830;BME280;38614;43.472;23.936;2023-02-02T08:40:09;100239.56;;;9.66;100.00
41830;BME280;38614;43.472;23.936;2023-02-02T08:42:57;100244.50;;;9.73;100.00
41830;BME280;38614;43.472;23.936;2023-02-02T08:45:46;100236.31;;;9.76;100.00
41830;BME280;38614;43.472;23.936;2023-02-02T08:48:51;100238.06;;;9.96;100.00
41830;BME280;38614;43.472;23.936;2023-02-02T08:51:39;100225.16;;;10.00;99.72
41830;BME280;38614;43.472;23.936;2023-02-02T08:54:29;100224.41;;;10.16;96.14
41830;BME280;38614;43.472;23.936;2023-02-02T08:57:17;100222.28;;;10.41;94.89
41830;BME280;38614;43.472;23.936;2023-02-02T09:00:05;100210.53;;;10.60;98.38
41830;BME280;38614;43.472;23.936;2023-02-02T09:02:53;100220.78;;;10.75;94.81
41830;BME280;38614;43.472;23.936;2023-02-02T09:05:43;100214.09;;;10.44;90.86
41830;BME280;38614;43.472;23.936;2023-02-02T09:08:31;100164.44;;;10.00;91.32
41830;BME280;38614;43.472;23.936;2023-02-02T09:11:21;100203.47;;;10.15;90.28
41830;BME280;38614;43.472;23.936;2023-02-02T09:14:11;100215.34;;;10.03;87.81
41830;BME280;38614;43.472;23.936;2023-02-02T09:16:59;100213.09;;;9.77;86.88
41830;BME280;38614;43.472;23.936;2023-02-02T09:19:48;100204.63;;;9.70;86.00
41830;BME280;38614;43.472;23.936;2023-02-02T09:22:37;100213.56;;;9.67;85.71
41830;BME280;38614;43.472;23.936;2023-02-02T09:25:27;100202.75;;;9.74;90.08
41830;BME280;38614;43.472;23.936;2023-02-02T09:28:15;100181.91;;;9.61;91.50
41830;BME280;38614;43.472;23.936;2023-02-02T09:31:03;100207.50;;;9.89;92.17
41830;BME280;38614;43.472;23.936;2023-02-02T09:33:51;100206.91;;;9.96;91.50
41830;BME280;38614;43.472;23.936;2023-02-02T09:36:39;100199.75;;;9.95;91.88
41830;BME280;38614;43.472;23.936;2023-02-02T09:39:26;100196.34;;;9.86;91.02
41830;BME280;38614;43.472;23.936;2023-02-02T09:42:24;100197.13;;;9.98;91.27
41830;BME280;38614;43.472;23.936;2023-02-02T09:48:47;100178.16;;;10.13;87.92
41830;BME280;38614;43.472;23.936;2023-02-02T09:51:40;100179.28;;;10.24;90.87
41830;BME280;38614;43.472;23.936;2023-02-02T09:54:39;100168.22;;;10.24;89.59
41830;BME280;38614;43.472;23.936;2023-02-02T09:57:38;100176.66;;;10.15;89.52
41830;BME280;38614;43.472;23.936;2023-02-02T10:00:37;100166.34;;;10.28;92.04
41830;BME280;38614;43.472;23.936;2023-02-02T10:03:42;100158.31;;;10.23;88.87
41830;BME280;38614;43.472;23.936;2023-02-02T10:06:50;100172.41;;;10.34;89.19
41830;BME280;38614;43.472;23.936;2023-02-02T10:09:47;100146.78;;;10.21;88.18
41830;BME280;38614;43.472;23.936;2023-02-02T10:12:44;100158.69;;;10.37;87.82
41830;BME280;38614;43.472;23.936;2023-02-02T10:19:00;100144.16;;;10.40;89.42
41830;BME280;38614;43.472;23.936;2023-02-02T10:22:02;100137.72;;;10.20;86.69
41830;BME280;38614;43.472;23.936;2023-02-02T10:24:53;100147.16;;;10.04;89.21
41830;BME280;38614;43.472;23.936;2023-02-02T10:28:13;100140.09;;;9.90;88.60
41830;BME280;38614;43.472;23.936;2023-02-02T10:31:10;100156.53;;;9.71;89.94
41830;BME280;38614;43.472;23.936;2023-02-02T10:34:41;100158.91;;;9.57;90.27
41830;BME280;38614;43.472;23.936;2023-02-02T10:41:44;100159.53;;;9.22;93.00
41830;BME280;38614;43.472;23.936;2023-02-02T10:44:36;100167.66;;;9.19;93.22
41830;BME280;38614;43.472;23.936;2023-02-02T10:47:29;100143.06;;;8.85;95.26
41830;BME280;38614;43.472;23.936;2023-02-02T10:50:19;100165.56;;;8.88;96.81
41830;BME280;38614;43.472;23.936;2023-02-02T10:53:12;100189.44;;;8.71;99.17
41830;BME280;38614;43.472;23.936;2023-02-02T10:56:05;100180.16;;;8.39;100.00
41830;BME280;38614;43.472;23.936;2023-02-02T10:59:03;100234.53;;;7.97;100.00
41830;BME280;38614;43.472;23.936;2023-02-02T11:01:52;100222.59;;;7.39;100.00
41830;BME280;38614;43.472;23.936;2023-02-02T11:04:40;100224.34;;;7.02;100.00
41830;BME280;38614;43.472;23.936;2023-02-02T11:07:48;100244.66;;;6.80;100.00
41830;BME280;38614;43.472;23.936;2023-02-02T11:10:36;100247.00;;;6.61;100.00
41830;BME280;38614;43.472;23.936;2023-02-02T11:14:27;100212.19;;;6.52;100.00
41830;BME280;38614;43.472;23.936;2023-02-02T11:16:59;100210.00;;;6.67;100.00
41830;BME280;38614;43.472;23.936;2023-02-02T11:19:47;100218.00;;;6.80;100.00
41830;BME280;38614;43.472;23.936;2023-02-02T11:22:37;100211.56;;;6.76;100.00
41830;BME280;38614;43.472;23.936;2023-02-02T11:25:45;100209.59;;;6.77;100.00
41830;BME280;38614;43.472;23.936;2023-02-02T11:28:41;100207.88;;;6.43;100.00
41830;BME280;38614;43.472;23.936;2023-02-02T11:31:36;100213.47;;;6.46;100.00
41830;BME280;38614;43.472;23.936;2023-02-02T11:34:27;100211.81;;;6.24;100.00
41830;BME280;38614;43.472;23.936;2023-02-02T11:37:32;100207.31;;;6.11;100.00
41830;BME280;38614;43.472;23.936;2023-02-02T11:41:10;100205.25;;;5.82;100.00
41830;BME280;38614;43.472;23.936;2023-02-02T11:44:50;100233.50;;;5.91;100.00
41830;BME280;38614;43.472;23.936;2023-02-02T11:47:41;100234.66;;;5.90;100.00
41830;BME280;38614;43.472;23.936;2023-02-02T11:50:28;100248.03;;;5.92;100.00
41830;BME280;38614;43.472;23.936;2023-02-02T11:56:24;100277.03;;;5.58;100.00
41830;BME280;38614;43.472;23.936;2023-02-02T12:02:25;100276.72;;;5.25;100.00
41830;BME280;38614;43.472;23.936;2023-02-02T12:05:33;100285.41;;;5.19;100.00
41830;BME280;38614;43.472;23.936;2023-02-02T12:08:22;100284.03;;;4.90;100.00
41830;BME280;38614;43.472;23.936;2023-02-02T12:11:20;100289.63;;;4.76;100.00
41830;BME280;38614;43.472;23.936;2023-02-02T12:26:31;100283.44;;;4.62;100.00
41830;BME280;38614;43.472;23.936;2023-02-02T12:29:55;100275.41;;;4.57;100.00
41830;BME280;38614;43.472;23.936;2023-02-02T13:04:43;100264.44;;;3.95;100.00
41830;BME280;38614;43.472;23.936;2023-02-02T13:07:43;100247.66;;;3.88;100.00
41830;BME280;38614;43.472;23.936;2023-02-02T13:10:41;100262.06;;;4.02;100.00
41830;BME280;38614;43.472;23.936;2023-02-02T13:13:36;100265.25;;;3.95;100.00
41830;BME280;38614;43.472;23.936;2023-02-02T13:16:26;100246.97;;;4.05;100.00
41830;BME280;38614;43.472;23.936;2023-02-02T13:22:17;100265.88;;;4.23;100.00
41830;BME280;38614;43.472;23.936;2023-02-02T13:25:24;100190.44;;;3.91;100.00
41830;BME280;38614;43.472;23.936;2023-02-02T13:28:39;100267.22;;;4.35;100.00
41830;BME280;38614;43.472;23.936;2023-02-02T13:32:49;100259.03;;;4.35;100.00
41830;BME280;38614;43.472;23.936;2023-02-02T13:35:15;100270.59;;;4.32;100.00
41830;BME280;38614;43.472;23.936;2023-02-02T13:38:16;100262.19;;;4.28;100.00
41830;BME280;38614;43.472;23.936;2023-02-02T13:41:08;100250.69;;;4.09;100.00
41830;BME280;38614;43.472;23.936;2023-02-02T13:44:28;100290.59;;;4.41;100.00
41830;BME280;38614;43.472;23.936;2023-02-02T13:47:19;100295.63;;;4.47;100.00
41830;BME280;38614;43.472;23.936;2023-02-02T13:50:16;100305.78;;;4.55;100.00
41830;BME280;38614;43.472;23.936;2023-02-02T13:56:48;100256.44;;;4.29;100.00
41830;BME280;38614;43.472;23.936;2023-02-02T14:06:19;100289.94;;;4.66;100.00
41830;BME280;38614;43.472;23.936;2023-02-02T14:09:16;100296.66;;;4.60;100.00
41830;BME280;38614;43.472;23.936;2023-02-02T14:12:07;100307.97;;;4.67;100.00
41830;BME280;38614;43.472;23.936;2023-02-02T14:14:56;100301.75;;;4.53;100.00
41830;BME280;38614;43.472;23.936;2023-02-02T14:17:48;100295.38;;;4.57;100.00
41830;BME280;38614;43.472;23.936;2023-02-02T14:20:46;100302.94;;;4.61;100.00
41830;BME280;38614;43.472;23.936;2023-02-02T14:23:52;100277.56;;;4.38;100.00
41830;BME280;38614;43.472;23.936;2023-02-02T14:26:46;100298.91;;;4.58;100.00
41830;BME280;38614;43.472;23.936;2023-02-02T14:32:41;100303.81;;;4.39;100.00
41830;BME280;38614;43.472;23.936;2023-02-02T14:48:15;100321.47;;;4.33;100.00
41830;BME280;38614;43.472;23.936;2023-02-02T14:51:13;100334.34;;;4.32;100.00
41830;BME280;38614;43.472;23.936;2023-02-02T14:54:05;100355.66;;;4.21;100.00
41830;BME280;38614;43.472;23.936;2023-02-02T14:57:26;100329.44;;;4.20;100.00
41830;BME280;38614;43.472;23.936;2023-02-02T15:00:21;100327.63;;;4.16;100.00
41830;BME280;38614;43.472;23.936;2023-02-02T15:03:45;100342.47;;;4.23;100.00
41830;BME280;38614;43.472;23.936;2023-02-02T15:06:37;100323.50;;;4.27;100.00
41830;BME280;38614;43.472;23.936;2023-02-02T15:09:36;100329.19;;;4.31;100.00
41830;BME280;38614;43.472;23.936;2023-02-02T15:12:46;100332.53;;;4.27;100.00
41830;BME280;38614;43.472;23.936;2023-02-02T15:15:36;100353.09;;;4.25;100.00
41830;BME280;38614;43.472;23.936;2023-02-02T15:18:27;100347.16;;;4.23;100.00
41830;BME280;38614;43.472;23.936;2023-02-02T15:21:21;100337.00;;;4.23;100.00
41830;BME280;38614;43.472;23.936;2023-02-02T15:24:20;100343.13;;;4.20;100.00
41830;BME280;38614;43.472;23.936;2023-02-02T15:27:14;100337.66;;;4.20;100.00
41830;BME280;38614;43.472;23.936;2023-02-02T15:30:07;100327.19;;;4.22;100.00
41830;BME280;38614;43.472;23.936;2023-02-02T15:32:55;100328.75;;;4.15;100.00
41830;BME280;38614;43.472;23.936;2023-02-02T15:35:46;100321.72;;;4.00;100.00
41830;BME280;38614;43.472;23.936;2023-02-02T15:38:37;100328.19;;;4.04;100.00
41830;BME280;38614;43.472;23.936;2023-02-02T15:41:32;100322.84;;;3.99;100.00
41830;BME280;38614;43.472;23.936;2023-02-02T15:44:26;100332.16;;;3.98;100.00
41830;BME280;38614;43.472;23.936;2023-02-02T15:47:16;100318.97;;;3.78;100.00
41830;BME280;38614;43.472;23.936;2023-02-02T15:50:18;100307.47;;;3.67;100.00
41830;BME280;38614;43.472;23.936;2023-02-02T15:53:17;100334.09;;;3.75;100.00
41830;BME280;38614;43.472;23.936;2023-02-02T15:59:23;100328.53;;;3.66;100.00
41830;BME280;38614;43.472;23.936;2023-02-02T16:02:37;100344.94;;;3.66;100.00
41830;BME280;38614;43.472;23.936;2023-02-02T16:08:29;100338.19;;;3.50;100.00
41830;BME280;38614;43.472;23.936;2023-02-02T16:11:21;100301.94;;;3.22;100.00
41830;BME280;38614;43.472;23.936;2023-02-02T16:14:13;100358.13;;;3.51;100.00
41830;BME280;38614;43.472;23.936;2023-02-02T16:17:22;100321.16;;;3.17;100.00
41830;BME280;38614;43.472;23.936;2023-02-02T16:20:13;100352.78;;;3.46;100.00
41830;BME280;38614;43.472;23.936;2023-02-02T16:23:04;100365.03;;;3.34;100.00
41830;BME280;38614;43.472;23.936;2023-02-02T16:25:58;100379.69;;;3.25;100.00
41830;BME280;38614;43.472;23.936;2023-02-02T16:28:47;100372.75;;;3.19;100.00
41830;BME280;38614;43.472;23.936;2023-02-02T16:31:35;100375.88;;;3.26;100.00
41830;BME280;38614;43.472;23.936;2023-02-02T16:37:30;100350.91;;;3.19;100.00
41830;BME280;38614;43.472;23.936;2023-02-02T16:43:18;100374.84;;;2.94;100.00
41830;BME280;38614;43.472;23.936;2023-02-02T16:46:13;100369.19;;;2.77;100.00
41830;BME280;38614;43.472;23.936;2023-02-02T16:49:03;100384.66;;;2.81;100.00
41830;BME280;38614;43.472;23.936;2023-02-02T16:52:15;100383.84;;;2.81;100.00
41830;BME280;38614;43.472;23.936;2023-02-02T16:55:08;100387.66;;;2.66;100.00
41830;BME280;38614;43.472;23.936;2023-02-02T16:58:05;100360.75;;;2.46;100.00